createdAt,value
2022-11-21T00:01:16.283Z,30.63
2022-11-21T00:03:46.415Z,33.50
2022-11-21T00:06:14.089Z,31.77
2022-11-21T00:08:42.221Z,31.27
2022-11-21T00:11:10.172Z,32.00
2022-11-21T00:13:38.310Z,32.00
2022-11-21T00:16:07.287Z,30.92
2022-11-21T00:18:35.824Z,32.75
2022-11-21T00:21:09.673Z,30.85
2022-11-21T00:23:37.622Z,30.60
2022-11-21T00:26:07.134Z,31.52
2022-11-21T00:28:35.183Z,31.92
2022-11-21T00:31:03.164Z,30.08
2022-11-21T00:33:32.281Z,31.40
2022-11-21T00:36:00.015Z,31.45
2022-11-21T00:38:29.769Z,35.53
2022-11-21T00:40:57.426Z,32.28
2022-11-21T00:43:25.116Z,38.72
2022-11-21T00:45:52.800Z,32.58
2022-11-21T00:48:20.547Z,29.83
2022-11-21T00:50:50.921Z,31.90
2022-11-21T00:53:18.659Z,35.42
2022-11-21T00:55:47.674Z,34.92
2022-11-21T00:58:15.390Z,30.10
2022-11-21T01:00:43.164Z,34.15
2022-11-21T01:03:10.949Z,38.28
2022-11-21T01:05:38.600Z,37.78
2022-11-21T01:08:06.494Z,31.77
2022-11-21T01:10:35.164Z,31.23
2022-11-21T01:13:05.272Z,31.10
2022-11-21T01:15:32.960Z,32.60
2022-11-21T01:18:00.654Z,31.30
2022-11-21T01:20:28.330Z,35.67
2022-11-21T01:22:56.075Z,36.55
2022-11-21T01:25:23.735Z,32.88
2022-11-21T01:27:51.469Z,33.58
2022-11-21T01:30:20.624Z,28.45
2022-11-21T01:32:49.604Z,33.17
2022-11-21T01:35:17.292Z,30.73
2022-11-21T01:37:47.824Z,29.45
2022-11-21T01:40:15.966Z,28.20
2022-11-21T01:43:12.602Z,28.73
2022-11-21T01:45:57.776Z,32.10
2022-11-21T01:48:30.938Z,29.55
2022-11-21T01:51:03.303Z,35.28
2022-11-21T01:53:31.055Z,27.17
2022-11-21T01:55:58.815Z,27.48
2022-11-21T01:58:27.017Z,29.33
2022-11-21T02:00:56.218Z,29.45
2022-11-21T02:03:28.691Z,31.55
2022-11-21T02:05:57.092Z,29.17
2022-11-21T02:08:27.463Z,28.33
2022-11-21T02:11:05.840Z,27.17
2022-11-21T02:13:33.617Z,31.38
2022-11-21T02:16:03.464Z,28.58
2022-11-21T02:18:31.135Z,26.73
2022-11-21T02:21:05.851Z,28.30
2022-11-21T02:23:41.147Z,27.08
2022-11-21T02:26:11.247Z,26.48
2022-11-21T02:28:39.034Z,30.25
2022-11-21T02:31:06.697Z,27.10
2022-11-21T02:33:35.217Z,33.42
2022-11-21T02:36:04.183Z,27.75
2022-11-21T02:38:34.462Z,29.45
2022-11-21T02:41:08.025Z,27.80
2022-11-21T02:43:43.187Z,28.63
2022-11-21T02:46:10.856Z,27.98
2022-11-21T02:48:39.112Z,30.15
2022-11-21T02:51:06.782Z,28.80
2022-11-21T02:53:34.443Z,33.40
2022-11-21T02:56:02.186Z,34.53
2022-11-21T02:58:30.084Z,30.80
2022-11-21T03:01:01.323Z,35.97
2022-11-21T03:03:29.061Z,31.92
2022-11-21T03:05:57.730Z,32.67
2022-11-21T03:08:25.424Z,33.35
2022-11-21T03:10:53.067Z,29.40
2022-11-21T03:13:20.769Z,35.88
2022-11-21T03:15:48.425Z,33.85
2022-11-21T03:18:17.546Z,34.50
2022-11-21T03:20:45.197Z,29.48
2022-11-21T03:23:12.932Z,32.55
2022-11-21T03:25:40.691Z,27.85
2022-11-21T03:28:08.383Z,30.67
2022-11-21T03:30:36.108Z,30.60
2022-11-21T03:33:03.806Z,27.90
2022-11-21T03:35:32.888Z,30.13
2022-11-21T03:38:00.584Z,30.35
2022-11-21T03:40:28.304Z,29.85
2022-11-21T03:42:55.976Z,28.83
2022-11-21T03:45:23.650Z,28.27
2022-11-21T03:47:51.353Z,34.33
2022-11-21T03:50:20.958Z,32.25
2022-11-21T03:52:52.613Z,28.67
2022-11-21T03:55:20.620Z,34.50
2022-11-21T03:57:48.413Z,34.63
2022-11-21T04:00:17.511Z,32.25
2022-11-21T04:02:45.210Z,31.95
2022-11-21T04:05:12.888Z,28.55
2022-11-21T04:07:40.608Z,29.65
2022-11-21T04:10:10.787Z,34.00
2022-11-21T04:12:38.566Z,29.73
2022-11-21T04:15:13.192Z,29.83
2022-11-21T04:17:41.490Z,28.30
2022-11-21T04:20:10.169Z,30.65
2022-11-21T04:22:37.857Z,37.65
2022-11-21T04:25:06.268Z,36.58
2022-11-21T04:27:35.369Z,31.83
2022-11-21T04:30:03.081Z,33.22
2022-11-21T04:32:30.726Z,36.50
2022-11-21T04:34:58.378Z,35.60
2022-11-21T04:37:26.103Z,30.48
2022-11-21T04:39:53.790Z,34.70
2022-11-21T04:42:21.533Z,31.48
2022-11-21T04:44:50.620Z,33.38
2022-11-21T04:47:18.391Z,32.53
2022-11-21T04:52:26.989Z,40.15
2022-11-21T04:54:54.658Z,37.40
2022-11-21T04:57:22.354Z,31.83
2022-11-21T04:59:50.100Z,32.25
2022-11-21T05:02:17.828Z,36.78
2022-11-21T05:04:45.620Z,33.45
2022-11-21T05:07:16.462Z,31.50
2022-11-21T05:09:45.563Z,40.10
2022-11-21T05:12:30.884Z,30.15
2022-11-21T05:15:01.469Z,33.80
2022-11-21T05:17:29.845Z,30.33
2022-11-21T05:19:57.530Z,26.33
2022-11-21T05:22:25.254Z,23.58
2022-11-21T05:24:54.360Z,23.92
2022-11-21T05:27:22.063Z,28.60
2022-11-21T05:29:49.718Z,28.50
2022-11-21T05:32:17.447Z,25.42
2022-11-21T05:34:45.106Z,24.73
2022-11-21T05:37:12.766Z,23.80
2022-11-21T05:39:40.431Z,25.10
2022-11-21T05:42:09.459Z,24.63
2022-11-21T05:44:36.072Z,29.15
2022-11-21T05:47:03.703Z,29.38
2022-11-21T05:49:31.382Z,28.42
2022-11-21T05:51:59.045Z,28.95
2022-11-21T05:54:28.189Z,29.10
2022-11-21T05:56:56.064Z,26.98
2022-11-21T05:59:25.044Z,26.50
2022-11-21T06:02:10.086Z,26.90
2022-11-21T06:04:37.790Z,30.27
2022-11-21T06:07:06.158Z,29.33
2022-11-21T06:09:33.936Z,29.15
2022-11-21T06:12:01.553Z,30.30
2022-11-21T06:14:30.777Z,32.05
2022-11-21T06:16:58.498Z,32.17
2022-11-21T06:19:26.126Z,25.08
2022-11-21T06:21:53.767Z,25.98
2022-11-21T06:24:22.440Z,26.77
2022-11-21T06:26:50.197Z,23.58
2022-11-21T06:29:17.863Z,26.15
2022-11-21T06:31:46.849Z,29.08
2022-11-21T06:34:14.881Z,32.45
2022-11-21T06:36:44.619Z,32.33
2022-11-21T06:39:12.330Z,31.75
2022-11-21T06:41:40.024Z,34.40
2022-11-21T06:44:07.810Z,38.47
2022-11-21T06:46:35.503Z,36.75
2022-11-21T06:49:04.776Z,33.28
2022-11-21T06:51:32.446Z,33.67
2022-11-21T06:54:00.736Z,40.88
2022-11-21T06:56:30.483Z,37.10
2022-11-21T06:58:58.645Z,40.65
2022-11-21T07:01:26.778Z,39.38
2022-11-21T07:03:57.829Z,41.30
2022-11-21T07:06:27.260Z,41.22
2022-11-21T07:09:25.542Z,34.88
2022-11-21T07:11:43.575Z,39.90
2022-11-21T07:14:10.284Z,42.45
2022-11-21T07:16:38.284Z,37.95
2022-11-21T07:19:06.466Z,45.42
2022-11-21T07:21:35.547Z,47.00
2022-11-21T07:24:03.312Z,44.75
2022-11-21T07:26:31.079Z,41.88
2022-11-21T07:28:59.800Z,47.83
2022-11-21T07:31:27.629Z,43.08
2022-11-21T07:33:55.268Z,40.90
2022-11-21T07:36:23.066Z,43.17
2022-11-21T07:38:52.129Z,42.05
2022-11-21T07:41:19.836Z,40.08
2022-11-21T07:43:47.551Z,42.80
2022-11-21T07:46:15.258Z,39.88
2022-11-21T07:48:42.941Z,45.65
2022-11-21T07:51:11.099Z,42.05
2022-11-21T07:53:38.826Z,42.08
2022-11-21T07:56:09.512Z,40.83
2022-11-21T07:58:37.651Z,42.22
2022-11-21T08:01:06.414Z,36.55
2022-11-21T08:03:34.579Z,39.58
2022-11-21T08:06:03.783Z,40.13
2022-11-21T08:08:31.804Z,42.00
2022-11-21T08:10:59.471Z,39.97
2022-11-21T08:13:30.156Z,38.50
2022-11-21T08:15:57.884Z,36.47
2022-11-21T08:18:26.336Z,35.95
2022-11-21T08:20:54.004Z,38.72
2022-11-21T08:23:21.727Z,38.08
2022-11-21T08:25:51.451Z,39.92
2022-11-21T08:28:19.123Z,42.70
2022-11-21T08:30:48.265Z,35.08
2022-11-21T08:33:16.661Z,39.15
2022-11-21T08:35:44.357Z,40.67
2022-11-21T08:38:11.995Z,42.10
2022-11-21T08:40:41.288Z,42.08
2022-11-21T08:43:10.491Z,41.47
2022-11-21T08:45:39.260Z,45.65
2022-11-21T08:48:12.463Z,40.15
2022-11-21T08:50:40.534Z,39.03
2022-11-21T08:53:08.264Z,40.15
2022-11-21T08:55:36.000Z,39.67
2022-11-21T08:58:03.736Z,44.08
2022-11-21T09:00:31.427Z,41.58
2022-11-21T09:02:59.057Z,47.47
2022-11-21T09:05:28.081Z,39.85
2022-11-21T09:07:58.979Z,37.13
2022-11-21T09:10:27.233Z,41.20
2022-11-21T09:12:54.975Z,44.22
2022-11-21T09:15:40.169Z,45.78
2022-11-21T09:18:08.208Z,43.65
2022-11-21T09:20:40.820Z,46.92
2022-11-21T09:25:36.947Z,44.35
2022-11-21T09:28:06.570Z,44.00
2022-11-21T09:30:34.501Z,39.45
2022-11-21T09:33:02.809Z,48.83
2022-11-21T09:35:30.850Z,44.45
2022-11-21T09:38:00.093Z,41.13
2022-11-21T09:40:30.169Z,41.45
2022-11-21T09:43:27.369Z,42.92
2022-11-21T09:46:02.526Z,46.03
2022-11-21T09:48:35.205Z,45.63
2022-11-21T09:51:07.001Z,49.50
2022-11-21T09:53:40.649Z,43.33
2022-11-21T09:56:14.103Z,46.88
2022-11-21T09:58:44.935Z,51.97
2022-11-21T10:01:13.681Z,46.00
2022-11-21T10:03:43.956Z,42.88
2022-11-21T10:06:19.755Z,41.83
2022-11-21T10:08:58.172Z,41.67
2022-11-21T10:12:02.679Z,41.92
2022-11-21T10:14:49.006Z,42.38
2022-11-21T10:17:27.497Z,44.80
2022-11-21T10:20:17.543Z,45.60
2022-11-21T10:23:11.226Z,44.20
2022-11-21T10:25:44.550Z,37.97
2022-11-21T10:28:18.486Z,40.90
2022-11-21T10:30:48.150Z,41.45
2022-11-21T10:33:24.680Z,42.35
2022-11-21T10:35:54.457Z,42.17
2022-11-21T10:38:24.581Z,40.95
2022-11-21T10:41:02.058Z,40.08
2022-11-21T10:43:53.528Z,45.30
2022-11-21T10:46:21.327Z,47.25
2022-11-21T10:48:57.083Z,41.80
2022-11-21T10:51:37.868Z,42.92
2022-11-21T10:54:25.628Z,47.33
2022-11-21T10:56:57.711Z,38.28
2022-11-21T10:59:31.222Z,39.30
2022-11-21T11:02:01.155Z,40.42
2022-11-21T11:04:35.369Z,42.75
2022-11-21T11:07:22.894Z,38.15
2022-11-21T11:09:52.334Z,40.40
2022-11-21T11:12:45.577Z,41.75
2022-11-21T11:15:20.303Z,38.25
2022-11-21T11:17:52.969Z,37.50
2022-11-21T11:20:34.080Z,33.85
2022-11-21T11:23:15.990Z,31.95
2022-11-21T11:25:48.091Z,22.17
2022-11-21T11:28:19.240Z,27.35
2022-11-21T11:30:48.222Z,24.42
2022-11-21T11:33:33.156Z,22.65
2022-11-21T11:36:13.042Z,20.23
2022-11-21T11:38:44.519Z,19.67
2022-11-21T11:41:22.832Z,20.58
2022-11-21T11:44:20.023Z,20.13
2022-11-21T11:47:15.810Z,19.35
2022-11-21T11:50:08.660Z,22.33
2022-11-21T11:55:17.819Z,17.75
2022-11-21T11:57:47.010Z,17.63
2022-11-21T12:00:28.187Z,18.60
2022-11-21T12:03:01.608Z,19.92
2022-11-21T12:05:31.485Z,18.65
2022-11-21T12:08:40.027Z,19.08
2022-11-21T12:11:23.685Z,18.20
2022-11-21T12:13:56.693Z,17.88
2022-11-21T12:16:27.881Z,18.30
2022-11-21T12:19:01.076Z,15.95
2022-11-21T12:21:29.516Z,16.92
2022-11-21T12:23:58.862Z,17.17
2022-11-21T12:26:35.872Z,16.50
2022-11-21T12:29:15.033Z,16.90
2022-11-21T12:32:06.756Z,13.75
2022-11-21T12:34:53.628Z,12.05
2022-11-21T12:37:32.446Z,12.32
2022-11-21T12:40:03.704Z,11.07
2022-11-21T12:42:51.407Z,13.48
2022-11-21T12:45:37.818Z,16.25
2022-11-21T12:48:54.524Z,16.92
2022-11-21T12:52:03.381Z,15.77
2022-11-21T12:54:57.400Z,26.63
2022-11-21T12:57:37.559Z,45.40
2022-11-21T13:00:16.013Z,17.15
2022-11-21T13:03:21.190Z,50.35
2022-11-21T13:05:54.512Z,18.17
2022-11-21T13:08:25.445Z,24.48
2022-11-21T13:11:20.601Z,41.13
2022-11-21T13:13:53.108Z,17.98
2022-11-21T13:19:18.523Z,16.40
2022-11-21T13:21:48.853Z,16.95
2022-11-21T13:24:49.259Z,15.13
2022-11-21T13:27:30.044Z,19.40
2022-11-21T13:30:24.738Z,14.25
2022-11-21T13:32:54.466Z,20.65
2022-11-21T13:36:05.019Z,12.82
2022-11-21T13:39:03.565Z,11.88
2022-11-21T13:42:21.300Z,11.82
2022-11-21T13:44:49.469Z,11.88
2022-11-21T13:47:56.895Z,11.10
2022-11-21T13:50:57.550Z,9.45
2022-11-21T13:54:05.415Z,27.30
2022-11-21T13:56:42.482Z,17.38
2022-11-21T13:59:31.556Z,23.42
2022-11-21T14:02:29.854Z,14.25
2022-11-21T14:05:27.730Z,17.85
2022-11-21T14:07:55.672Z,15.40
2022-11-21T14:10:34.213Z,21.27
2022-11-21T14:13:04.418Z,12.85
2022-11-21T14:15:42.337Z,19.38
2022-11-21T14:18:21.448Z,13.80
2022-11-21T14:20:53.769Z,12.98
2022-11-21T14:23:25.812Z,16.40
2022-11-21T14:25:58.371Z,17.50
2022-11-21T14:30:58.723Z,33.10
2022-11-21T14:33:33.107Z,11.80
2022-11-21T14:36:04.877Z,28.67
2022-11-21T14:38:36.244Z,36.30
2022-11-21T14:41:32.741Z,34.05
2022-11-21T14:44:19.598Z,16.98
2022-11-21T14:46:48.185Z,23.17
2022-11-21T14:49:24.726Z,16.60
2022-11-21T14:51:58.899Z,14.32
2022-11-21T14:54:29.309Z,10.40
2022-11-21T14:57:01.280Z,11.15
2022-11-21T14:59:32.628Z,19.25
2022-11-21T15:02:08.210Z,37.42
2022-11-21T15:04:37.144Z,27.98
2022-11-21T15:07:05.861Z,32.83
2022-11-21T15:12:30.553Z,34.70
2022-11-21T15:15:01.644Z,37.70
2022-11-21T15:17:30.125Z,48.35
2022-11-21T15:20:18.828Z,30.10
2022-11-21T15:22:48.738Z,23.85
2022-11-21T15:25:19.521Z,36.55
2022-11-21T15:27:50.209Z,38.75
2022-11-21T15:30:24.965Z,27.35
2022-11-21T15:33:04.150Z,27.77
2022-11-21T15:35:55.069Z,25.45
2022-11-21T15:38:28.582Z,22.55
2022-11-21T15:41:11.591Z,24.60
2022-11-21T15:43:45.879Z,27.45
2022-11-21T15:46:16.479Z,17.75
2022-11-21T15:48:47.100Z,28.45
2022-11-21T15:51:15.363Z,19.98
2022-11-21T15:53:43.265Z,23.13
2022-11-21T15:56:16.990Z,17.42
2022-11-21T15:58:50.980Z,13.90
2022-11-21T16:01:20.719Z,12.32
2022-11-21T16:03:50.661Z,11.40
2022-11-21T16:06:18.859Z,12.35
2022-11-21T16:08:47.098Z,12.85
2022-11-21T16:11:21.155Z,9.40
2022-11-21T16:13:54.760Z,7.60
2022-11-21T16:16:24.176Z,13.38
2022-11-21T16:18:51.969Z,14.23
2022-11-21T16:21:20.101Z,12.18
2022-11-21T16:23:48.081Z,10.35
2022-11-21T16:26:16.729Z,10.45
2022-11-21T16:28:44.532Z,8.02
2022-11-21T16:31:24.546Z,13.38
2022-11-21T16:33:52.548Z,17.80
2022-11-21T16:36:21.301Z,12.38
2022-11-21T16:38:49.242Z,13.77
2022-11-21T16:41:18.676Z,7.20
2022-11-21T16:43:49.616Z,13.30
2022-11-21T16:46:20.105Z,5.63
2022-11-21T16:48:48.124Z,7.38
2022-11-21T16:51:18.026Z,7.38
2022-11-21T16:53:48.183Z,5.13
2022-11-21T16:56:17.357Z,7.45
2022-11-21T16:58:45.159Z,9.25
2022-11-21T17:01:16.295Z,8.18
2022-11-21T17:03:47.360Z,6.95
2022-11-21T17:06:17.938Z,7.97
2022-11-21T17:08:47.060Z,4.70
2022-11-21T17:11:16.347Z,5.35
2022-11-21T17:13:44.751Z,4.68
2022-11-21T17:16:13.262Z,4.50
2022-11-21T17:18:41.076Z,4.75
2022-11-21T17:21:13.227Z,4.20
2022-11-21T17:23:42.696Z,4.22
2022-11-21T17:26:12.494Z,6.40
2022-11-21T17:28:45.278Z,5.80
2022-11-21T17:31:15.208Z,4.60
2022-11-21T17:33:44.094Z,6.30
2022-11-21T17:36:15.672Z,5.90
2022-11-21T17:38:44.081Z,5.00
2022-11-21T17:41:13.356Z,4.30
2022-11-21T17:43:41.486Z,57.10
2022-11-21T17:46:13.170Z,26.67
2022-11-21T17:48:41.353Z,46.20
2022-11-21T17:51:17.040Z,11.50
2022-11-21T17:53:48.103Z,14.48
2022-11-21T17:56:18.375Z,13.38
2022-11-21T17:58:47.145Z,7.50
2022-11-21T18:01:19.379Z,5.07
2022-11-21T18:06:17.399Z,8.32
2022-11-21T18:08:48.490Z,5.20
2022-11-21T18:11:19.294Z,6.20
2022-11-21T18:13:48.109Z,7.57
2022-11-21T18:16:17.882Z,6.75
2022-11-21T18:18:45.855Z,7.15
2022-11-21T18:21:15.274Z,7.38
2022-11-21T18:23:44.609Z,6.85
2022-11-21T18:26:17.716Z,7.03
2022-11-21T18:28:45.464Z,5.50
2022-11-21T18:31:14.990Z,4.25
2022-11-21T18:33:49.098Z,5.63
2022-11-21T18:36:19.737Z,4.85
2022-11-21T18:38:51.210Z,8.65
2022-11-21T18:41:25.679Z,5.53
2022-11-21T18:43:54.425Z,6.05
2022-11-21T18:46:24.152Z,8.68
2022-11-21T18:49:04.276Z,5.00
2022-11-21T18:51:33.364Z,3.90
2022-11-21T18:54:05.116Z,4.18
2022-11-21T18:56:34.581Z,4.68
2022-11-21T18:59:03.328Z,3.40
2022-11-21T19:01:32.773Z,3.42
2022-11-21T19:04:00.755Z,3.20
2022-11-21T19:06:29.422Z,3.80
2022-11-21T19:08:58.607Z,3.83
2022-11-21T19:11:28.507Z,9.70
2022-11-21T19:13:59.273Z,13.15
2022-11-21T19:16:28.764Z,16.52
2022-11-21T19:21:45.608Z,10.93
2022-11-21T19:24:14.959Z,6.72
2022-11-21T19:26:43.184Z,7.82
2022-11-21T19:29:12.810Z,6.50
2022-11-21T19:31:45.070Z,4.85
2022-11-21T19:34:13.996Z,6.05
2022-11-21T19:36:41.771Z,6.00
2022-11-21T19:39:10.013Z,6.88
2022-11-21T19:41:38.285Z,17.08
2022-11-21T19:44:06.184Z,12.80
2022-11-21T19:46:36.785Z,22.67
2022-11-21T19:49:05.703Z,7.72
2022-11-21T19:51:35.672Z,7.65
2022-11-21T19:54:03.720Z,5.93
2022-11-21T19:56:31.483Z,7.28
2022-11-21T19:58:59.500Z,9.70
2022-11-21T20:01:29.080Z,8.05
2022-11-21T20:04:00.340Z,7.32
2022-11-21T20:06:30.678Z,4.90
2022-11-21T20:08:59.822Z,9.57
2022-11-21T20:11:28.650Z,7.57
2022-11-21T20:13:57.148Z,4.70
2022-11-21T20:16:27.045Z,4.80
2022-11-21T20:18:57.094Z,6.28
2022-11-21T20:21:26.562Z,4.63
2022-11-21T20:23:54.479Z,6.00
2022-11-21T20:26:23.288Z,6.18
2022-11-21T20:28:51.591Z,7.43
2022-11-21T20:31:21.077Z,5.53
2022-11-21T20:33:50.190Z,3.92
2022-11-21T20:36:20.978Z,3.55
2022-11-21T20:38:53.798Z,3.67
2022-11-21T20:41:22.435Z,3.40
2022-11-21T20:46:42.342Z,3.30
2022-11-21T20:49:10.350Z,3.45
2022-11-21T20:54:27.883Z,3.15
2022-11-21T20:56:55.875Z,3.20
2022-11-21T20:59:23.601Z,3.20
2022-11-21T21:01:51.379Z,3.60
2022-11-21T21:04:19.102Z,3.70
2022-11-21T21:06:46.847Z,3.40
2022-11-21T21:09:14.586Z,3.70
2022-11-21T21:11:52.506Z,3.28
2022-11-21T21:14:21.110Z,3.70
2022-11-21T21:16:48.998Z,3.58
2022-11-21T21:19:17.020Z,3.40
2022-11-21T21:21:44.876Z,3.65
2022-11-21T21:24:13.687Z,3.70
2022-11-21T21:26:44.886Z,3.28
2022-11-21T21:29:13.880Z,3.53
2022-11-21T21:31:47.073Z,3.45
2022-11-21T21:34:17.770Z,3.60
2022-11-21T21:36:45.885Z,3.55
2022-11-21T21:39:13.852Z,3.17
2022-11-21T21:41:44.731Z,3.45
2022-11-21T21:44:14.283Z,3.25
2022-11-21T21:46:42.177Z,3.15
2022-11-21T21:49:09.903Z,3.00
2022-11-21T21:51:38.085Z,4.10
2022-11-21T21:54:06.324Z,3.70
2022-11-21T21:56:34.698Z,4.10
2022-11-21T21:59:02.476Z,3.63
2022-11-21T22:01:33.345Z,4.40
2022-11-21T22:04:03.408Z,6.35
2022-11-21T22:06:35.776Z,3.97
2022-11-21T22:09:04.843Z,6.82
2022-11-21T22:11:36.561Z,5.30
2022-11-21T22:14:07.195Z,4.45
2022-11-21T22:16:36.297Z,14.20
2022-11-21T22:19:03.985Z,4.25
2022-11-21T22:21:33.312Z,4.45
2022-11-21T22:24:24.803Z,5.85
2022-11-21T22:26:50.310Z,3.50
2022-11-21T22:29:20.687Z,7.72
2022-11-21T22:31:50.785Z,6.85
2022-11-21T22:34:18.549Z,7.68
2022-11-21T22:36:46.725Z,4.45
2022-11-21T22:39:15.299Z,5.80
2022-11-21T22:41:42.957Z,4.03
2022-11-21T22:44:10.752Z,4.35
2022-11-21T22:46:38.603Z,4.47
2022-11-21T22:49:07.679Z,3.72
2022-11-21T22:51:35.341Z,3.35
2022-11-21T22:54:03.052Z,3.20
2022-11-21T22:56:30.722Z,3.33
2022-11-21T22:58:58.393Z,3.03
2022-11-21T23:01:29.849Z,5.13
2022-11-21T23:03:57.592Z,3.30
2022-11-21T23:06:27.729Z,3.83
2022-11-21T23:08:56.847Z,7.93
2022-11-21T23:11:27.670Z,3.00
2022-11-21T23:13:56.953Z,4.80
2022-11-21T23:16:25.069Z,3.72
2022-11-21T23:18:53.635Z,3.17
2022-11-21T23:21:21.690Z,3.00
2022-11-21T23:23:50.844Z,7.57
2022-11-21T23:26:18.824Z,3.42
2022-11-21T23:28:46.560Z,3.70
2022-11-21T23:31:14.425Z,3.03
2022-11-21T23:33:42.191Z,3.00
2022-11-21T23:36:09.939Z,2.92
2022-11-21T23:38:37.649Z,4.40
2022-11-21T23:41:06.770Z,3.15
2022-11-21T23:43:34.510Z,2.75
2022-11-21T23:46:02.239Z,2.70
2022-11-21T23:48:29.981Z,3.05
2022-11-21T23:50:57.732Z,2.75
2022-11-21T23:53:25.413Z,3.15
2022-11-21T23:55:53.155Z,2.55
2022-11-21T23:58:33.398Z,2.55
